KPAM

Tyndall AFB Airport

Panama City, Florida, USA
METAR KPAM 162156Z AUTO 36010KT 10SM CLR 15/09 A3018 RMK AO2 SLP223 T01460088 $
Observed Flight Rules
Dec-16 @ 21:56 UTC (8 minutes ago) Visual Flight Rules
Wind Visibility Clouds
360° at 10 knots 10 miles
  • Clear skies
Temperatures Readings
Current 15°C / 59°F
Dewpoint 9°C / 48°F
Humidity 68%
Altimeter 30.18" Hg
Pressure 1022.3 hPa
Elevation 5
METAR KPAM 162156Z AUTO 36010KT 10SM CLR 15/09 A3018 RMK AO2 SLP223 T01460088 $
Observed Flight Rules
Dec-16 @ 21:56 UTC
(8 minutes ago)
VFR
Wind Visibility
360° at 10 knots 10 miles
Clouds
  • Clear skies
Temperature Dewpoint
15°C / 59°F 9°C / 48°F
Humidity Altimeter Pressure
68% 30.18" Hg 1022.3 hPa